Time;durP1;ratioP1;P1;durP2;ratioP2;P2;SDS_P1;SDS_P2;PMS_P1;PMS_P2;Temp;Humidity;BMP_temperature;BMP_pressure;BME280_temperature;BME280_humidity;BME280_pressure;Samples;Min_cycle;Max_cycle;Signal;HPM_P1;HPM_P2
2022/06/15 00:01:15;;;;;;;3.35;0.90;;;;;;;12.99;69.83;100885.28;4970564;28;20049;-74
2022/06/15 00:04:22;;;;;;;3.15;0.90;;;;;;;12.98;70.15;100885.38;4971227;28;20498;-74
2022/06/15 00:07:32;;;;;;;5.53;1.02;;;;;;;12.86;70.82;100883.41;4971495;28;20073;-74
2022/06/15 00:10:40;;;;;;;2.72;0.82;;;;;;;12.85;70.84;100873.88;4952587;28;20152;-74
2022/06/15 00:13:47;;;;;;;4.10;1.77;;;;;;;12.70;72.08;100873.81;4952624;28;20525;-74
2022/06/15 00:16:55;;;;;;;2.22;1.00;;;;;;;12.67;71.80;100879.22;4951841;28;20318;-74
2022/06/15 00:20:06;;;;;;;2.08;1.00;;;;;;;12.64;71.58;100878.53;4952564;28;20498;-74
2022/06/15 00:23:14;;;;;;;2.47;1.00;;;;;;;12.61;71.66;100883.97;4956494;29;20049;-74
2022/06/15 00:26:21;;;;;;;6.43;1.13;;;;;;;12.51;72.00;100878.38;4977955;28;20071;-74
2022/06/15 00:29:30;;;;;;;3.17;1.10;;;;;;;12.49;71.79;100877.59;4961894;29;20062;-74
2022/06/15 00:32:38;;;;;;;3.15;1.05;;;;;;;12.42;72.07;100879.72;4969764;28;20062;-74
2022/06/15 00:35:57;;;;;;;8.73;1.45;;;;;;;12.47;72.31;100876.81;4993375;28;20126;-73
2022/06/15 00:39:04;;;;;;;4.38;1.65;;;;;;;12.43;72.43;100875.31;5015146;28;20033;-74
2022/06/15 00:42:12;;;;;;;4.43;1.58;;;;;;;12.34;72.48;100874.88;4994001;28;20109;-75
2022/06/15 00:45:19;;;;;;;3.33;1.00;;;;;;;12.36;72.55;100873.97;4949599;28;20054;-75
2022/06/15 00:48:26;;;;;;;4.43;1.35;;;;;;;12.30;72.42;100868.09;4972240;28;20045;-75
2022/06/15 00:51:32;;;;;;;4.05;1.30;;;;;;;12.17;72.78;100864.44;4970784;28;20046;-74
2022/06/15 00:54:40;;;;;;;3.97;1.15;;;;;;;12.28;72.55;100866.47;4970923;28;20057;-75
2022/06/15 00:57:49;;;;;;;3.25;1.30;;;;;;;12.15;73.05;100866.28;4971584;28;20401;-75
2022/06/15 01:00:59;;;;;;;2.83;0.95;;;;;;;12.14;73.34;100867.22;4974741;28;20088;-75
2022/06/15 01:04:08;;;;;;;2.95;1.20;;;;;;;12.08;73.62;100868.41;4987291;28;20588;-75
2022/06/15 01:07:25;;;;;;;6.95;1.30;;;;;;;11.96;74.15;100866.41;4987689;28;20125;-74
2022/06/15 01:10:45;;;;;;;4.55;0.95;;;;;;;12.06;73.88;100866.78;4989838;28;20496;-74
2022/06/15 01:14:08;;;;;;;6.53;1.20;;;;;;;11.88;74.41;100867.78;4990183;28;20524;-75
2022/06/15 01:17:35;;;;;;;3.55;1.13;;;;;;;11.89;74.26;100874.69;4989052;28;20033;-75
2022/06/15 01:21:07;;;;;;;3.15;1.00;;;;;;;11.88;74.05;100867.78;4989547;28;20124;-75
2022/06/15 01:24:48;;;;;;;3.05;1.20;;;;;;;11.86;73.98;100866.06;4989027;28;20137;-74
2022/06/15 01:28:17;;;;;;;3.13;1.20;;;;;;;11.93;73.42;100863.97;4988875;28;20073;-75
2022/06/15 01:31:34;;;;;;;3.03;1.30;;;;;;;11.74;74.32;100866.69;4989274;28;20069;-74
2022/06/15 01:34:39;;;;;;;3.35;1.00;;;;;;;11.71;74.74;100866.84;4989609;28;20409;-75
2022/06/15 01:37:59;;;;;;;3.80;0.95;;;;;;;11.64;75.05;100862.81;4988637;28;20113;-75
2022/06/15 01:41:13;;;;;;;4.82;1.20;;;;;;;11.68;74.64;100869.63;4989828;28;20057;-74
2022/06/15 01:44:32;;;;;;;3.92;1.20;;;;;;;11.54;75.40;100866.84;4988431;28;20057;-74
2022/06/15 01:58:10;;;;;;;3.58;1.20;;;;;;;11.44;75.31;100855.16;4970175;28;20465;-75
2022/06/15 02:10:55;;;;;;;6.18;1.20;;;;;;;11.40;75.37;100850.06;4988519;28;20102;-74
2022/06/15 02:15:25;;;;;;;3.85;1.23;;;;;;;11.27;75.93;100849.00;4967281;28;20038;-75
2022/06/15 02:19:06;;;;;;;2.28;1.23;;;;;;;11.40;75.29;100851.84;4918376;29;20407;-76
2022/06/15 02:22:39;;;;;;;5.45;1.20;;;;;;;11.31;75.21;100844.44;4927731;29;20046;-75
2022/06/15 02:26:36;;;;;;;4.53;1.75;;;;;;;11.07;76.33;100844.75;4917599;29;20054;-75
2022/06/15 02:30:34;;;;;;;5.40;1.10;;;;;;;11.12;76.16;100841.91;4931717;29;20054;-76
2022/06/15 02:33:53;;;;;;;6.03;1.02;;;;;;;11.13;76.29;100848.81;4923777;29;20497;-73
2022/06/15 02:37:01;;;;;;;2.03;0.90;;;;;;;11.08;76.14;100843.81;4930889;28;20308;-73
2022/06/15 02:40:14;;;;;;;6.57;1.50;;;;;;;11.03;76.22;100839.72;4957726;28;20105;-73
2022/06/15 02:43:30;;;;;;;3.80;1.70;;;;;;;10.96;76.47;100846.19;4607635;28;10000192;-73
2022/06/15 02:46:46;;;;;;;3.80;1.92;;;;;;;10.85;77.10;100842.34;4945992;29;20057;-73
2022/06/15 02:49:55;;;;;;;2.75;1.33;;;;;;;10.77;77.03;100841.84;4969195;28;20184;-74
2022/06/15 02:53:24;;;;;;;3.00;1.00;;;;;;;10.76;77.01;100834.91;4951274;28;20053;-74
2022/06/15 02:56:37;;;;;;;2.15;1.00;;;;;;;11.13;75.45;100839.19;4949242;29;20050;-73
2022/06/15 02:59:48;;;;;;;4.45;1.27;;;;;;;11.09;75.52;100847.28;4956607;28;20041;-74
2022/06/15 03:02:55;;;;;;;2.72;1.15;;;;;;;10.87;76.56;100842.25;4951324;28;20046;-73
2022/06/15 03:09:53;;;;;;;3.83;1.25;;;;;;;10.80;76.33;100839.06;4946060;28;20467;-74
2022/06/15 03:12:59;;;;;;;3.22;1.13;;;;;;;10.79;76.79;100840.00;4937943;28;20098;-74
2022/06/15 03:16:11;;;;;;;10.55;1.33;;;;;;;10.73;76.69;100845.53;4934411;28;20054;-74
2022/06/15 03:19:22;;;;;;;3.22;1.30;;;;;;;10.65;77.21;100839.81;4945328;28;20105;-74
2022/06/15 03:22:39;;;;;;;3.47;1.48;;;;;;;10.65;77.27;100848.50;4934854;29;20097;-74
2022/06/15 03:25:59;;;;;;;;;;;;;;;10.79;76.39;100844.41;4956497;28;20113;-74
2022/06/15 03:29:13;;;;;;;4.50;1.25;;;;;;;10.59;76.94;100846.19;4978800;28;19920;-74
2022/06/15 03:32:21;;;;;;;5.53;1.27;;;;;;;10.78;76.30;100838.28;4961595;28;20089;-74
2022/06/15 03:35:49;;;;;;;3.05;1.33;;;;;;;10.62;77.01;100842.56;4969551;28;20046;-74
2022/06/15 03:39:10;;;;;;;3.58;1.20;;;;;;;10.62;77.01;100842.56;4968931;28;20050;-74
2022/06/15 03:42:23;;;;;;;3.92;1.42;;;;;;;10.68;77.21;100844.88;4963824;28;20128;-74
2022/06/15 03:45:30;;;;;;;4.03;1.10;;;;;;;10.65;76.92;100839.81;4957298;28;20129;-74
2022/06/15 03:48:36;;;;;;;3.63;1.20;;;;;;;10.71;76.64;100844.75;4970416;28;20045;-74
2022/06/15 03:51:44;;;;;;;3.55;1.33;;;;;;;10.65;77.03;100840.66;4960841;28;20105;-74
2022/06/15 03:54:50;;;;;;;4.70;1.48;;;;;;;10.87;76.07;100837.84;4974854;28;20129;-74
2022/06/15 03:57:57;;;;;;;4.68;1.30;;;;;;;10.84;76.16;100832.75;4978967;28;20061;-75
2022/06/15 04:01:04;;;;;;;2.38;1.20;;;;;;;10.84;75.93;100838.00;4998277;28;20050;-74
2022/06/15 04:04:12;;;;;;;3.08;1.17;;;;;;;10.85;75.99;100834.47;4975046;28;20057;-75
2022/06/15 04:10:46;;;;;;;4.28;1.30;;;;;;;10.81;76.37;100843.38;4967255;28;20045;-74
2022/06/15 04:13:53;;;;;;;2.75;1.25;;;;;;;10.85;76.59;100833.63;4970067;28;20053;-75
2022/06/15 04:17:02;;;;;;;4.70;1.20;;;;;;;10.84;76.35;100839.78;4953570;29;20090;-74
2022/06/15 04:20:32;;;;;;;5.85;1.50;;;;;;;11.00;75.80;100842.50;4955301;29;20123;-74
2022/06/15 04:24:12;;;;;;;4.38;1.30;;;;;;;10.76;76.98;100845.38;4949297;28;20365;-75
2022/06/15 04:27:22;;;;;;;6.70;1.60;;;;;;;10.64;77.79;100843.34;4971389;28;20137;-75
2022/06/15 04:30:30;;;;;;;4.35;1.52;;;;;;;10.82;77.06;100845.09;4971244;28;20064;-75
2022/06/15 04:33:40;;;;;;;3.22;1.35;;;;;;;10.83;76.58;100836.31;4961781;28;20401;-75
2022/06/15 04:36:51;;;;;;;3.38;1.35;;;;;;;10.81;76.80;100832.91;4963112;28;20138;-75
2022/06/15 04:39:59;;;;;;;3.22;1.15;;;;;;;11.16;75.22;100828.56;4960838;28;20469;-75
2022/06/15 04:43:09;;;;;;;3.20;1.15;;;;;;;11.44;74.36;100832.41;4971890;28;20046;-75
2022/06/15 04:46:16;;;;;;;3.97;1.15;;;;;;;11.57;72.86;100824.78;4963305;28;20054;-75
2022/06/15 04:49:26;;;;;;;5.50;1.30;;;;;;;11.47;73.29;100821.78;4959485;28;20050;-75
2022/06/15 04:52:33;;;;;;;3.50;1.10;;;;;;;11.38;73.66;100837.97;4960994;28;20073;-76
2022/06/15 04:55:45;;;;;;;4.20;1.60;;;;;;;11.47;72.71;100828.81;4973367;28;20521;-76
2022/06/15 04:58:56;;;;;;;3.55;1.10;;;;;;;11.51;72.66;100832.97;4970490;28;20097;-75
2022/06/15 05:02:05;;;;;;;3.35;1.10;;;;;;;11.55;72.90;100834.47;4959481;28;20045;-76
2022/06/15 05:05:14;;;;;;;7.13;1.35;;;;;;;11.71;72.78;100834.53;4971290;28;20052;-76
2022/06/15 05:08:23;;;;;;;3.92;1.02;;;;;;;11.76;72.75;100827.31;4959632;28;20073;-73
2022/06/15 05:11:35;;;;;;;2.67;0.88;;;;;;;11.90;72.57;100830.09;4971689;28;20102;-73
2022/06/15 05:14:46;;;;;;;6.93;1.65;;;;;;;11.93;72.50;100836.91;4960193;28;20133;-73
2022/06/15 05:17:55;;;;;;;5.07;1.60;;;;;;;12.25;71.38;100830.81;4961632;28;20038;-75
2022/06/15 05:21:06;;;;;;;4.43;1.17;;;;;;;12.27;71.71;100834.19;4960032;28;20050;-75
2022/06/15 05:24:16;;;;;;;3.20;1.17;;;;;;;12.20;71.95;100837.22;4960392;28;20178;-73
2022/06/15 05:27:46;;;;;;;2.28;0.85;;;;;;;12.14;73.28;100840.19;4970598;28;20469;-74
2022/06/15 05:31:16;;;;;;;4.32;0.80;;;;;;;12.28;73.36;100835.03;4961877;28;20061;-73
2022/06/15 05:34:26;;;;;;;4.15;1.60;;;;;;;12.34;72.11;100835.53;4992749;28;20057;-74
2022/06/15 05:37:51;;;;;;;5.18;1.10;;;;;;;12.37;72.79;100834.53;4976197;28;20489;-74
2022/06/15 05:41:00;;;;;;;7.25;1.48;;;;;;;12.62;71.81;100827.94;4973510;28;20073;-73
2022/06/15 05:44:18;;;;;;;7.57;1.75;;;;;;;12.70;71.71;100826.56;4985189;28;20041;-74
2022/06/15 05:47:29;;;;;;;6.80;1.40;;;;;;;12.79;71.93;100822.56;4974829;28;20049;-75
2022/06/15 05:51:10;;;;;;;5.00;1.20;;;;;;;12.94;71.66;100823.47;4974291;28;20041;-74
2022/06/15 05:54:22;;;;;;;3.38;1.17;;;;;;;13.06;71.33;100819.31;4988844;28;20097;-73
2022/06/15 05:57:32;;;;;;;3.03;1.08;;;;;;;13.30;70.67;100822.31;4976393;28;20101;-76
2022/06/15 06:00:44;;;;;;;4.63;1.30;;;;;;;13.48;70.75;100823.84;4975987;28;20048;-76
2022/06/15 06:03:54;;;;;;;3.03;1.30;;;;;;;13.48;71.21;100826.47;4975178;28;20049;-74
2022/06/15 06:07:03;;;;;;;3.95;1.52;;;;;;;13.68;70.48;100831.38;4991070;28;20068;-74
2022/06/15 06:10:13;;;;;;;3.97;0.90;;;;;;;13.65;71.23;100825.47;4980533;28;20413;-74
2022/06/15 06:13:25;;;;;;;5.22;1.42;;;;;;;13.79;71.90;100812.34;4970033;28;20045;-74
2022/06/15 06:16:37;;;;;;;5.93;1.58;;;;;;;13.92;71.70;100815.06;4979217;28;20045;-74
2022/06/15 06:19:54;;;;;;;4.57;1.30;;;;;;;14.02;71.44;100808.28;4985856;28;20046;-74
2022/06/15 06:23:14;;;;;;;6.75;1.30;;;;;;;14.15;71.22;100809.22;4989915;28;20053;-74
2022/06/15 06:26:48;;;;;;;7.07;1.40;;;;;;;14.34;70.56;100811.53;4989253;28;20049;-74
2022/06/15 06:30:15;;;;;;;7.03;1.55;;;;;;;14.60;69.92;100811.69;4990455;28;20417;-74
2022/06/15 06:33:37;;;;;;;4.88;1.90;;;;;;;14.77;69.77;100806.19;4969495;28;20066;-74
2022/06/15 06:36:48;;;;;;;7.05;1.25;;;;;;;14.95;67.51;100809.38;4971939;28;20050;-75
2022/06/15 06:39:58;;;;;;;5.00;2.35;;;;;;;15.16;65.67;100803.66;4970261;28;20045;-74
2022/06/15 06:43:05;;;;;;;6.72;1.70;;;;;;;15.31;64.91;100805.22;4950685;29;20120;-74
2022/06/15 07:01:21;;;;;;;5.35;1.30;;;;;;;15.93;61.45;100802.72;4949891;28;20134;-74
2022/06/15 07:05:11;;;;;;;4.07;1.30;;;;;;;16.09;60.84;100805.13;4950626;29;20099;-74
2022/06/15 07:13:53;;;;;;;9.45;1.77;;;;;;;16.34;59.18;100795.47;4949622;29;20042;-74
2022/06/15 07:16:59;;;;;;;8.52;2.22;;;;;;;16.35;59.55;100802.44;4956951;28;20505;-74
2022/06/15 07:20:08;;;;;;;7.13;2.13;;;;;;;16.40;60.23;100801.16;4966445;28;20046;-74
2022/06/15 07:23:16;;;;;;;7.88;2.40;;;;;;;16.56;59.60;100805.28;4969051;28;20493;-74
2022/06/15 07:26:30;;;;;;;8.88;1.58;;;;;;;16.63;59.21;100803.91;4969022;28;20049;-74
2022/06/15 07:29:36;;;;;;;6.05;1.73;;;;;;;16.72;58.76;100811.16;4982060;28;20099;-73
2022/06/15 07:32:44;;;;;;;4.72;1.40;;;;;;;16.79;60.63;100807.13;5010239;28;20062;-82
2022/06/15 07:35:51;;;;;;;10.85;1.77;;;;;;;16.90;59.97;100809.81;4992530;28;20045;-74
2022/06/15 07:39:00;;;;;;;5.60;1.55;;;;;;;17.01;59.18;100806.38;4989393;28;20057;-74
2022/06/15 07:42:11;;;;;;;9.95;1.90;;;;;;;17.16;58.42;100807.03;5000468;28;20093;-73
2022/06/15 07:45:21;;;;;;;5.20;1.40;;;;;;;17.12;57.47;100798.47;5008370;28;20196;-74
2022/06/15 07:52:00;;;;;;;6.63;1.58;;;;;;;17.44;57.88;100788.09;4989570;28;20049;-74
2022/06/15 07:55:10;;;;;;;6.50;1.60;;;;;;;17.50;57.70;100791.25;4988239;28;20097;-75
2022/06/15 07:58:16;;;;;;;5.55;1.25;;;;;;;17.53;56.96;100796.28;4988461;28;20496;-74
2022/06/15 08:01:27;;;;;;;5.35;1.40;;;;;;;17.56;57.36;100799.53;4987395;28;20111;-74
2022/06/15 08:04:38;;;;;;;6.25;1.73;;;;;;;17.74;57.10;100794.66;4987753;28;20045;-75
2022/06/15 08:07:50;;;;;;;8.88;1.30;;;;;;;17.81;56.68;100795.88;4989341;28;20041;-74
2022/06/15 08:11:04;;;;;;;7.97;1.40;;;;;;;17.95;56.54;100788.66;4987741;28;20069;-75
2022/06/15 08:14:11;;;;;;;7.07;1.45;;;;;;;17.96;56.44;100785.88;4990821;28;20137;-75
2022/06/15 08:17:30;;;;;;;5.80;1.58;;;;;;;18.00;56.21;100783.84;4992178;28;20069;-75
2022/06/15 08:20:52;;;;;;;6.05;1.50;;;;;;;18.12;55.43;100777.56;4991454;28;20057;-75
2022/06/15 08:24:04;;;;;;;6.97;1.48;;;;;;;18.34;55.22;100766.09;4991271;28;20397;-75
2022/06/15 08:27:17;;;;;;;6.00;1.58;;;;;;;18.66;54.72;100767.91;4989771;28;20069;-76
2022/06/15 08:30:28;;;;;;;8.85;1.85;;;;;;;18.67;54.52;100767.78;4971693;28;20069;-75
2022/06/15 08:33:36;;;;;;;7.45;1.60;;;;;;;18.71;54.04;100774.50;4991660;28;20092;-75
2022/06/15 08:36:46;;;;;;;8.70;1.52;;;;;;;18.74;54.99;100770.81;4991033;28;20069;-75
2022/06/15 08:39:54;;;;;;;18.73;1.90;;;;;;;19.03;52.37;100768.38;4992011;28;20524;-75
2022/06/15 08:43:17;;;;;;;9.50;1.98;;;;;;;18.90;52.96;100768.56;4991631;28;20084;-75
2022/06/15 08:46:44;;;;;;;5.68;1.83;;;;;;;19.12;52.41;100758.81;4992401;28;20744;-75
2022/06/15 08:50:08;;;;;;;5.70;1.73;;;;;;;19.37;52.94;100765.50;4991643;28;20132;-76
2022/06/15 08:53:14;;;;;;;10.10;1.73;;;;;;;19.31;52.01;100760.75;4992579;28;20042;-76
2022/06/15 08:56:29;;;;;;;4.43;1.50;;;;;;;19.33;51.96;100764.94;4991395;28;20089;-76
2022/06/15 08:59:50;;;;;;;6.88;1.90;;;;;;;19.60;52.26;100758.25;4991935;28;20405;-75
2022/06/15 09:03:39;;;;;;;6.97;1.40;;;;;;;19.81;50.20;100760.84;5006067;28;20052;-75
2022/06/15 09:07:02;;;;;;;5.30;1.70;;;;;;;19.97;51.19;100755.88;4989914;28;20053;-76
2022/06/15 09:10:41;;;;;;;5.88;1.50;;;;;;;20.27;51.18;100755.00;5008590;28;20107;-75
2022/06/15 09:18:38;;;;;;;7.95;1.75;;;;;;;20.62;49.02;100748.34;5001892;28;20120;-75
2022/06/15 09:22:01;;;;;;;9.10;2.58;;;;;;;20.83;48.89;100748.19;5015024;28;20049;-75
2022/06/15 09:25:47;;;;;;;9.18;1.75;;;;;;;20.85;48.12;100746.22;5004766;28;20727;-75
2022/06/15 09:29:02;;;;;;;7.70;1.85;;;;;;;21.01;48.72;100749.16;5006455;28;20398;-76
2022/06/15 09:32:21;;;;;;;8.93;1.67;;;;;;;21.05;48.69;100745.22;5005792;28;20068;-76
2022/06/15 09:35:39;;;;;;;10.27;1.90;;;;;;;20.96;49.34;100743.41;5010430;28;20147;-76
2022/06/15 09:38:44;;;;;;;11.38;1.80;;;;;;;21.18;48.86;100738.75;5008610;28;20052;-76
2022/06/15 09:42:06;;;;;;;6.25;1.40;;;;;;;21.20;49.20;100731.50;5010599;28;20049;-76
2022/06/15 09:45:25;;;;;;;6.00;2.03;;;;;;;21.45;48.26;100730.88;5009403;28;20528;-76
2022/06/15 09:48:55;;;;;;;7.35;1.38;;;;;;;21.58;47.20;100741.19;5009443;28;20053;-76
2022/06/15 09:52:11;;;;;;;8.88;1.67;;;;;;;21.85;47.04;100728.88;5008727;28;20414;-76
2022/06/15 09:55:56;;;;;;;7.43;2.20;;;;;;;21.71;46.51;100730.22;4990039;28;20088;-75
2022/06/15 09:59:12;;;;;;;9.50;1.98;;;;;;;22.03;46.22;100724.44;4990712;28;20204;-76
2022/06/15 10:02:31;;;;;;;5.38;1.80;;;;;;;22.20;45.72;100720.97;5000773;28;20121;-75
2022/06/15 10:05:43;;;;;;;6.35;1.75;;;;;;;22.09;46.28;100723.00;5011673;28;20115;-76
2022/06/15 10:08:51;;;;;;;7.10;1.73;;;;;;;21.96;45.97;100720.69;4992272;28;20049;-75
2022/06/15 10:15:33;;;;;;;5.53;1.60;;;;;;;22.35;44.90;100718.63;4991298;28;20209;-75
2022/06/15 10:18:59;;;;;;;8.30;1.88;;;;;;;22.92;43.74;100710.28;4980050;28;20069;-76
2022/06/15 10:22:09;;;;;;;7.63;1.70;;;;;;;23.05;42.82;100704.56;4997294;28;20042;-74
2022/06/15 10:25:19;;;;;;;7.57;1.98;;;;;;;23.09;43.09;100713.94;5012442;28;20559;-76
2022/06/15 10:28:44;;;;;;;3.90;1.83;;;;;;;23.09;42.20;100713.94;5014759;28;20049;-76
2022/06/15 10:32:09;;;;;;;5.25;2.05;;;;;;;23.22;40.53;100706.34;5013949;28;20115;-76
2022/06/15 10:35:20;;;;;;;8.38;1.92;;;;;;;23.18;40.72;100700.47;4989943;28;20053;-75
2022/06/15 10:38:30;;;;;;;5.95;2.35;;;;;;;23.39;41.64;100702.78;4978228;28;20461;-76
2022/06/15 10:41:47;;;;;;;5.57;2.15;;;;;;;23.57;39.84;100700.00;4990455;28;20044;-75
2022/06/15 10:45:06;;;;;;;4.63;1.90;;;;;;;23.39;40.43;100696.59;4992528;28;20507;-76
2022/06/15 10:48:18;;;;;;;6.10;2.15;;;;;;;23.21;41.03;100683.34;4997857;28;20117;-76
2022/06/15 10:51:50;;;;;;;5.38;2.05;;;;;;;23.12;40.71;100684.28;5007831;28;20115;-76
2022/06/15 11:02:40;;;;;;;7.28;2.10;;;;;;;23.63;39.96;100686.03;5014420;28;20049;-76
2022/06/15 11:05:53;;;;;;;6.85;2.00;;;;;;;23.66;39.08;100675.03;4994470;28;20065;-76
2022/06/15 11:09:06;;;;;;;4.05;1.90;;;;;;;24.02;37.49;100671.31;4991346;28;20413;-75
2022/06/15 11:12:34;;;;;;;6.22;2.30;;;;;;;24.07;37.83;100666.31;4995174;28;20057;-76
2022/06/15 11:19:19;;;;;;;4.28;1.95;;;;;;;24.24;37.45;100659.97;4993181;28;20096;-76
2022/06/15 11:22:46;;;;;;;6.37;2.00;;;;;;;24.39;36.37;100662.84;4991720;28;20081;-76
2022/06/15 11:26:01;;;;;;;7.93;2.10;;;;;;;24.41;36.25;100654.66;5016256;28;20352;-76
2022/06/15 11:34:53;;;;;;;4.30;1.80;;;;;;;24.55;36.13;100651.34;4958389;28;20054;-76
2022/06/15 11:38:20;;;;;;;8.88;2.28;;;;;;;24.49;36.32;100649.34;4950685;29;20205;-76
2022/06/15 11:41:35;;;;;;;5.38;1.80;;;;;;;24.80;36.30;100647.66;4950493;29;20061;-75
2022/06/15 11:44:44;;;;;;;6.18;2.67;;;;;;;24.64;34.98;100647.66;4950897;29;20497;-76
2022/06/15 11:47:59;;;;;;;4.47;1.67;;;;;;;24.52;34.52;100649.00;4959544;28;20509;-76
2022/06/15 11:51:45;;;;;;;5.13;2.10;;;;;;;25.00;32.85;100637.41;4975905;28;20053;-75
2022/06/15 11:59:51;;;;;;;4.95;1.92;;;;;;;25.20;34.57;100635.19;4983364;28;20101;-76
2022/06/15 12:03:38;;;;;;;4.80;1.90;;;;;;;25.02;35.75;100626.53;4977819;28;20049;-78
2022/06/15 12:07:08;;;;;;;10.45;2.40;;;;;;;24.85;35.60;100635.59;4981746;28;20097;-78
2022/06/15 12:10:46;;;;;;;4.25;1.73;;;;;;;24.97;33.76;100631.56;4978095;28;20177;-79
2022/06/15 12:14:15;;;;;;;6.18;1.63;;;;;;;25.11;32.62;100621.97;4959665;29;20106;-78
2022/06/15 12:17:25;;;;;;;5.90;1.88;;;;;;;25.73;32.59;100622.88;4962273;28;20049;-76
2022/06/15 12:25:07;;;;;;;5.72;1.90;;;;;;;25.55;33.57;100616.97;4956653;28;20091;-76
2022/06/15 12:28:50;;;;;;;4.55;1.52;;;;;;;25.64;34.08;100615.91;4972407;28;20457;-76
2022/06/15 12:32:33;;;;;;;5.38;1.92;;;;;;;26.13;33.77;100610.28;4969781;28;20508;-76
2022/06/15 12:35:49;;;;;;;5.80;1.75;;;;;;;26.55;31.94;100608.09;4991320;28;20108;-76
2022/06/15 12:39:20;;;;;;;6.03;2.20;;;;;;;26.60;32.42;100609.19;4991683;28;20053;-77
2022/06/15 12:42:28;;;;;;;4.78;1.77;;;;;;;26.47;31.45;100606.28;4990806;28;20057;-77
2022/06/15 12:45:41;;;;;;;3.80;1.73;;;;;;;26.43;31.96;100607.66;4989945;28;20394;-77
2022/06/15 12:49:04;;;;;;;5.45;1.80;;;;;;;26.89;31.50;100605.69;4990464;28;20133;-77
2022/06/15 12:52:41;;;;;;;6.55;1.88;;;;;;;27.32;31.70;100605.06;4992514;28;20073;-77
2022/06/15 12:56:17;;;;;;;5.22;1.92;;;;;;;27.31;31.16;100601.56;4992704;28;20100;-77
2022/06/15 13:00:01;;;;;;;5.18;1.88;;;;;;;27.86;30.52;100602.00;4990198;28;20302;-76
2022/06/15 13:03:43;;;;;;;5.82;1.67;;;;;;;27.89;29.88;100596.25;4975778;28;20174;-77
2022/06/15 13:07:30;;;;;;;7.57;1.90;;;;;;;28.16;29.95;100585.72;4999561;28;20076;-78
2022/06/15 13:10:57;;;;;;;7.22;2.00;;;;;;;28.26;29.49;100586.22;4995709;28;20632;-77
2022/06/15 13:14:21;;;;;;;5.55;1.80;;;;;;;28.41;29.44;100578.94;4983809;28;20604;-76
2022/06/15 13:22:50;;;;;;;5.07;1.85;;;;;;;28.72;28.09;100580.38;4977032;28;20191;-77
2022/06/15 13:27:32;;;;;;;5.63;1.73;;;;;;;28.73;27.90;100577.47;4974206;28;20569;-76
2022/06/15 15:00:39;;;;;;;5.68;1.77;;;;;;;42.05;12.65;100509.66;4990739;28;20077;-75
2022/06/15 16:52:48;;;;;;;8.45;1.95;;;;;;;29.84;28.92;100477.63;4996136;28;20763;-78
2022/06/15 16:56:00;;;;;;;7.25;1.77;;;;;;;29.57;28.77;100482.13;4992545;28;20117;-78
2022/06/15 16:59:23;;;;;;;6.07;1.75;;;;;;;29.38;29.32;100489.13;4995453;28;20085;-78
2022/06/15 17:02:33;;;;;;;6.57;2.35;;;;;;;29.25;30.22;100489.09;4972559;28;20158;-78
2022/06/15 17:05:43;;;;;;;3.65;2.10;;;;;;;29.49;29.63;100482.34;4987007;28;20065;-78
2022/06/15 17:08:55;;;;;;;4.68;1.83;;;;;;;29.31;29.97;100480.22;4970403;28;20098;-78
2022/06/15 17:12:05;;;;;;;6.60;2.30;;;;;;;29.22;29.93;100484.13;4988194;28;20041;-78
2022/06/15 17:15:15;;;;;;;8.07;2.00;;;;;;;29.15;30.04;100483.28;4990324;28;20117;-78
2022/06/15 17:18:27;;;;;;;8.55;1.80;;;;;;;29.07;30.75;100488.84;4990760;28;20184;-78
2022/06/15 17:21:40;;;;;;;11.60;2.60;;;;;;;28.96;30.42;100480.28;4991384;28;20046;-79
2022/06/15 17:24:50;;;;;;;7.82;2.35;;;;;;;28.96;30.27;100491.06;4991477;28;20401;-75
2022/06/15 17:28:04;;;;;;;5.20;1.87;;;;;;;28.77;31.89;100494.50;4990974;28;20057;-76
2022/06/15 17:31:21;;;;;;;6.10;2.03;;;;;;;28.80;33.47;100491.41;4982748;28;20269;-75
2022/06/15 17:35:06;;;;;;;4.38;1.95;;;;;;;28.59;33.27;100494.19;4970917;28;20540;-75
2022/06/15 17:38:15;;;;;;;;;;;;;;;28.50;32.07;100498.94;4970832;28;20199;-76
2022/06/15 17:41:29;;;;;;;4.43;1.60;;;;;;;28.29;32.40;100494.41;4970814;28;19921;-75
2022/06/15 17:44:43;;;;;;;5.95;2.42;;;;;;;28.03;33.72;100495.88;4969941;28;20418;-75
2022/06/15 17:48:03;;;;;;;3.72;1.90;;;;;;;28.14;33.49;100504.44;4980319;28;20078;-78
2022/06/15 17:51:14;;;;;;;6.10;1.90;;;;;;;28.14;34.06;100507.13;5001635;28;20052;-78
2022/06/15 17:54:34;;;;;;;3.72;2.28;;;;;;;27.78;36.46;100502.69;4994684;28;20044;-78
2022/06/15 17:57:50;;;;;;;4.25;1.83;;;;;;;27.44;37.89;100500.69;5008174;28;20122;-79
2022/06/15 18:01:04;;;;;;;4.97;1.95;;;;;;;27.56;36.14;100491.94;4997345;28;20158;-79
2022/06/15 19:25:46;;;;;;;6.65;3.30;;;;;;;23.68;52.54;100557.41;4920498;29;20084;-78
2022/06/15 19:56:15;;;;;;;;;;;;;;;;;;;;;
2022/06/15 23:24:43;;;;;;;36.38;24.20;;;;;;;17.69;70.88;100696.31;4969133;28;20505;-74
2022/06/15 23:43:14;;;;;;;13.10;5.47;;;;;;;17.52;71.66;100696.81;4929984;29;20512;-75
2022/06/15 23:49:54;;;;;;;9.90;6.00;;;;;;;17.29;71.41;100690.66;4993009;28;20208;-74
2022/06/15 23:53:04;;;;;;;5.35;3.13;;;;;;;17.28;71.19;100681.88;4992247;28;20049;-74
2022/06/15 23:56:15;;;;;;;9.73;3.58;;;;;;;17.26;71.72;100667.97;4973767;28;20406;-74
2022/06/15 23:59:24;;;;;;;8.25;4.43;;;;;;;17.14;72.24;100667.13;4962477;28;20046;-74
